Archival Weather

Aeroparque Jorge Newbery

Buenos Aires, Argentina (SABE)

Report from: Sunday, March 19, 2023 7:00 PM -03
Current time: Tuesday, July 16, 2024 11:38 AM -03

Current weather – Weather history – Daily summaries
Weather forecast

Temperature27.0°C (80.6°F)
Heat index29.7°C (85.5°F)
Dew point23.0°C (73.4°F)
Winds 3 kts (1.5 m/s, 3.5 mph) Vrb
Winds variableWinds variable from North-Northwest (340°) to East (90°)
Clouds Sky clear
Altimeter29.80 in.Hg (1009 mB)
Relative humidity79 %
Density altitude1,904 ft. (580 m)
Remarks Ceiling and visibility OK
Corrected report
No significant changes expected in the next two hours
Flight conditions Visual Meteorological Conditions
Raw dataCOR SABE 192200Z 05003KT 340V090 CAVOK 27/23 Q1009 NOSIG RMK PP000
An error has occurred. This application may no longer respond until reloaded. Reload 🗙